sensor_id;sensor_type;location;lat;lon;timestamp;pressure;altitude;pressure_sealevel;temperature;humidity
22605;BME280;11469;49.024;8.246;2023-05-29T00:01:25;100394.94;;;14.57;80.13
22605;BME280;11469;49.024;8.246;2023-05-29T00:03:51;100400.34;;;14.76;78.14
22605;BME280;11469;49.024;8.246;2023-05-29T00:06:18;100395.13;;;14.78;77.64
22605;BME280;11469;49.024;8.246;2023-05-29T00:08:43;100406.03;;;14.83;76.84
22605;BME280;11469;49.024;8.246;2023-05-29T00:11:09;100408.13;;;14.90;76.47
22605;BME280;11469;49.024;8.246;2023-05-29T00:13:34;100406.06;;;14.87;76.55
22605;BME280;11469;49.024;8.246;2023-05-29T00:16:00;100413.25;;;14.77;76.35
22605;BME280;11469;49.024;8.246;2023-05-29T00:18:26;100411.97;;;14.71;77.16
22605;BME280;11469;49.024;8.246;2023-05-29T00:20:52;100402.66;;;14.67;77.52
22605;BME280;11469;49.024;8.246;2023-05-29T00:23:18;100401.03;;;14.66;77.75
22605;BME280;11469;49.024;8.246;2023-05-29T00:25:44;100400.66;;;14.64;78.11
22605;BME280;11469;49.024;8.246;2023-05-29T00:28:09;100401.03;;;14.63;77.84
22605;BME280;11469;49.024;8.246;2023-05-29T00:30:37;100399.41;;;14.62;78.08
22605;BME280;11469;49.024;8.246;2023-05-29T00:33:02;100401.03;;;14.63;77.81
22605;BME280;11469;49.024;8.246;2023-05-29T00:35:27;100395.41;;;14.66;77.56
22605;BME280;11469;49.024;8.246;2023-05-29T00:37:53;100392.59;;;14.63;77.26
22605;BME280;11469;49.024;8.246;2023-05-29T00:40:18;100394.53;;;14.55;77.54
22605;BME280;11469;49.024;8.246;2023-05-29T00:42:43;100402.97;;;14.55;77.75
22605;BME280;11469;49.024;8.246;2023-05-29T00:45:09;100397.78;;;14.57;77.38
22605;BME280;11469;49.024;8.246;2023-05-29T00:47:36;100407.03;;;14.57;77.53
22605;BME280;11469;49.024;8.246;2023-05-29T00:50:02;100401.38;;;14.54;78.18
22605;BME280;11469;49.024;8.246;2023-05-29T00:52:28;100399.63;;;14.42;78.33
22605;BME280;11469;49.024;8.246;2023-05-29T00:54:54;100396.31;;;14.37;78.85
22605;BME280;11469;49.024;8.246;2023-05-29T00:57:20;100396.66;;;14.32;78.70
22605;BME280;11469;49.024;8.246;2023-05-29T00:59:47;100394.97;;;14.23;79.50
22605;BME280;11469;49.024;8.246;2023-05-29T01:02:14;100401.28;;;14.10;80.09
22605;BME280;11469;49.024;8.246;2023-05-29T01:04:40;100409.84;;;14.20;79.42
22605;BME280;11469;49.024;8.246;2023-05-29T01:07:05;100400.56;;;14.20;78.81
22605;BME280;11469;49.024;8.246;2023-05-29T01:09:32;100403.78;;;14.18;79.15
22605;BME280;11469;49.024;8.246;2023-05-29T01:13:11;100406.13;;;14.09;79.25
22605;BME280;11469;49.024;8.246;2023-05-29T01:15:35;100404.50;;;14.08;79.41
22605;BME280;11469;49.024;8.246;2023-05-29T01:18:31;100407.69;;;14.07;78.69
22605;BME280;11469;49.024;8.246;2023-05-29T01:24:14;100401.19;;;14.40;76.21
22605;BME280;11469;49.024;8.246;2023-05-29T01:26:47;100410.25;;;14.22;76.39
22605;BME280;11469;49.024;8.246;2023-05-29T01:29:15;100403.38;;;14.20;76.95
22605;BME280;11469;49.024;8.246;2023-05-29T01:31:43;100404.31;;;14.31;75.82
22605;BME280;11469;49.024;8.246;2023-05-29T01:34:09;100399.94;;;14.37;75.34
22605;BME280;11469;49.024;8.246;2023-05-29T01:36:34;100399.75;;;14.16;76.02
22605;BME280;11469;49.024;8.246;2023-05-29T01:39:00;100403.75;;;14.15;76.17
22605;BME280;11469;49.024;8.246;2023-05-29T01:41:26;100404.84;;;14.03;76.48
22605;BME280;11469;49.024;8.246;2023-05-29T01:43:53;100401.59;;;14.01;76.69
22605;BME280;11469;49.024;8.246;2023-05-29T01:46:19;100400.78;;;14.01;76.78
22605;BME280;11469;49.024;8.246;2023-05-29T01:48:46;100393.09;;;13.98;76.93
22605;BME280;11469;49.024;8.246;2023-05-29T01:51:12;100399.91;;;14.34;74.31
22605;BME280;11469;49.024;8.246;2023-05-29T01:53:41;100403.09;;;14.28;73.41
22605;BME280;11469;49.024;8.246;2023-05-29T01:56:07;100401.03;;;14.25;73.37
22605;BME280;11469;49.024;8.246;2023-05-29T01:58:34;100399.88;;;14.30;72.45
22605;BME280;11469;49.024;8.246;2023-05-29T02:01:01;100403.03;;;14.25;72.91
22605;BME280;11469;49.024;8.246;2023-05-29T02:03:28;100392.53;;;14.22;73.07
22605;BME280;11469;49.024;8.246;2023-05-29T02:05:55;100403.16;;;14.36;71.67
22605;BME280;11469;49.024;8.246;2023-05-29T02:08:21;100391.50;;;14.37;71.49
22605;BME280;11469;49.024;8.246;2023-05-29T02:10:46;100393.69;;;14.51;70.77
22605;BME280;11469;49.024;8.246;2023-05-29T02:13:12;100394.91;;;14.53;70.15
22605;BME280;11469;49.024;8.246;2023-05-29T02:15:37;100391.25;;;14.49;70.24
22605;BME280;11469;49.024;8.246;2023-05-29T02:18:02;100392.88;;;14.50;70.24
22605;BME280;11469;49.024;8.246;2023-05-29T02:20:28;100384.78;;;14.49;69.92
22605;BME280;11469;49.024;8.246;2023-05-29T02:22:53;100389.97;;;14.43;70.10
22605;BME280;11469;49.024;8.246;2023-05-29T02:25:19;100396.31;;;14.37;71.08
22605;BME280;11469;49.024;8.246;2023-05-29T02:27:44;100399.56;;;14.39;70.64
22605;BME280;11469;49.024;8.246;2023-05-29T02:30:10;100402.38;;;14.39;70.03
22605;BME280;11469;49.024;8.246;2023-05-29T02:32:36;100403.66;;;14.41;70.10
22605;BME280;11469;49.024;8.246;2023-05-29T02:35:02;100401.09;;;14.33;70.54
22605;BME280;11469;49.024;8.246;2023-05-29T02:37:28;100404.31;;;14.31;70.36
22605;BME280;11469;49.024;8.246;2023-05-29T02:39:53;100403.00;;;14.21;70.36
22605;BME280;11469;49.024;8.246;2023-05-29T02:42:18;100405.78;;;14.18;71.04
22605;BME280;11469;49.024;8.246;2023-05-29T02:44:44;100410.16;;;14.12;70.56
22605;BME280;11469;49.024;8.246;2023-05-29T02:47:09;100402.19;;;14.17;70.77
22605;BME280;11469;49.024;8.246;2023-05-29T02:49:35;100407.41;;;14.19;70.31
22605;BME280;11469;49.024;8.246;2023-05-29T02:52:00;100403.00;;;14.21;70.42
22605;BME280;11469;49.024;8.246;2023-05-29T02:54:25;100404.09;;;14.10;70.94
22605;BME280;11469;49.024;8.246;2023-05-29T02:56:51;100398.09;;;14.11;70.70
22605;BME280;11469;49.024;8.246;2023-05-29T02:59:17;100401.69;;;14.08;71.04
22605;BME280;11469;49.024;8.246;2023-05-29T03:01:42;100396.84;;;14.09;70.54
22605;BME280;11469;49.024;8.246;2023-05-29T03:04:11;100398.72;;;13.98;71.68
22605;BME280;11469;49.024;8.246;2023-05-29T03:06:36;100395.09;;;13.97;71.40
22605;BME280;11469;49.024;8.246;2023-05-29T03:09:05;100399.84;;;13.89;71.41
22605;BME280;11469;49.024;8.246;2023-05-29T03:11:31;100392.97;;;13.87;71.47
22605;BME280;11469;49.024;8.246;2023-05-29T03:13:57;100400.31;;;13.95;71.57
22605;BME280;11469;49.024;8.246;2023-05-29T03:16:22;100402.69;;;13.93;71.87
22605;BME280;11469;49.024;8.246;2023-05-29T03:18:47;100402.47;;;13.75;72.04
22605;BME280;11469;49.024;8.246;2023-05-29T03:21:13;100401.31;;;13.80;71.72
22605;BME280;11469;49.024;8.246;2023-05-29T03:23:38;100405.28;;;13.75;71.56
22605;BME280;11469;49.024;8.246;2023-05-29T03:26:04;100402.47;;;13.75;72.15
22605;BME280;11469;49.024;8.246;2023-05-29T03:28:31;100388.34;;;13.72;72.08
22605;BME280;11469;49.024;8.246;2023-05-29T03:30:56;100392.41;;;13.74;72.10
22605;BME280;11469;49.024;8.246;2023-05-29T03:33:21;100403.28;;;13.76;72.36
22605;BME280;11469;49.024;8.246;2023-05-29T03:35:47;100403.63;;;13.71;72.60
22605;BME280;11469;49.024;8.246;2023-05-29T03:38:12;100399.59;;;13.68;72.13
22605;BME280;11469;49.024;8.246;2023-05-29T03:40:39;100403.22;;;13.72;72.00
22605;BME280;11469;49.024;8.246;2023-05-29T03:43:04;100413.31;;;13.73;72.17
22605;BME280;11469;49.024;8.246;2023-05-29T03:45:29;100412.88;;;13.71;72.68
22605;BME280;11469;49.024;8.246;2023-05-29T03:47:55;100413.56;;;13.61;72.70
22605;BME280;11469;49.024;8.246;2023-05-29T03:50:20;100412.81;;;13.64;72.50
22605;BME280;11469;49.024;8.246;2023-05-29T03:52:46;100417.25;;;13.65;73.57
22605;BME280;11469;49.024;8.246;2023-05-29T03:55:12;100417.59;;;13.60;73.44
22605;BME280;11469;49.024;8.246;2023-05-29T03:57:41;100418.34;;;13.57;72.99
22605;BME280;11469;49.024;8.246;2023-05-29T04:00:10;100426.69;;;13.50;73.78
22605;BME280;11469;49.024;8.246;2023-05-29T04:02:37;100425.81;;;13.76;72.67
22605;BME280;11469;49.024;8.246;2023-05-29T04:05:05;100433.84;;;13.74;72.51
22605;BME280;11469;49.024;8.246;2023-05-29T04:07:35;100429.25;;;13.92;71.79
22605;BME280;11469;49.024;8.246;2023-05-29T04:10:02;100433.25;;;13.91;71.97
22605;BME280;11469;49.024;8.246;2023-05-29T04:12:28;100433.91;;;14.11;71.99
22605;BME280;11469;49.024;8.246;2023-05-29T04:14:53;100429.09;;;14.11;71.78
22605;BME280;11469;49.024;8.246;2023-05-29T04:17:19;100431.56;;;14.20;71.26
22605;BME280;11469;49.024;8.246;2023-05-29T04:19:44;100440.53;;;14.29;70.49
22605;BME280;11469;49.024;8.246;2023-05-29T04:22:10;100447.19;;;14.44;69.52
22605;BME280;11469;49.024;8.246;2023-05-29T04:24:35;100447.28;;;14.54;69.44
22605;BME280;11469;49.024;8.246;2023-05-29T04:27:01;100446.56;;;14.61;69.22
22605;BME280;11469;49.024;8.246;2023-05-29T04:29:28;100453.81;;;14.66;69.05
22605;BME280;11469;49.024;8.246;2023-05-29T04:31:54;100461.63;;;14.79;68.76
22605;BME280;11469;49.024;8.246;2023-05-29T04:34:20;100456.97;;;14.98;67.76
22605;BME280;11469;49.024;8.246;2023-05-29T04:36:47;100463.91;;;15.07;67.00
22605;BME280;11469;49.024;8.246;2023-05-29T04:39:12;100462.75;;;15.19;67.01
22605;BME280;11469;49.024;8.246;2023-05-29T04:41:39;100465.31;;;15.35;66.76
22605;BME280;11469;49.024;8.246;2023-05-29T04:44:06;100465.28;;;15.31;66.20
22605;BME280;11469;49.024;8.246;2023-05-29T04:46:31;100463.38;;;15.46;65.80
22605;BME280;11469;49.024;8.246;2023-05-29T04:48:56;100472.59;;;15.39;66.47
22605;BME280;11469;49.024;8.246;2023-05-29T04:51:22;100479.09;;;15.47;66.53
22605;BME280;11469;49.024;8.246;2023-05-29T04:53:50;100483.97;;;15.50;66.49
22605;BME280;11469;49.024;8.246;2023-05-29T04:56:16;100487.97;;;15.45;65.64
22605;BME280;11469;49.024;8.246;2023-05-29T04:58:43;100491.50;;;15.32;65.45
22605;BME280;11469;49.024;8.246;2023-05-29T05:01:08;100480.22;;;15.35;67.06
22605;BME280;11469;49.024;8.246;2023-05-29T05:03:35;100497.56;;;15.34;66.59
22605;BME280;11469;49.024;8.246;2023-05-29T05:06:01;100489.78;;;15.20;66.73
22605;BME280;11469;49.024;8.246;2023-05-29T05:08:31;100493.09;;;15.29;67.51
22605;BME280;11469;49.024;8.246;2023-05-29T05:10:59;100499.63;;;15.40;66.93
22605;BME280;11469;49.024;8.246;2023-05-29T05:13:24;100497.81;;;15.66;66.47
22605;BME280;11469;49.024;8.246;2023-05-29T05:15:50;100493.06;;;15.80;65.64
22605;BME280;11469;49.024;8.246;2023-05-29T05:18:15;100499.56;;;15.88;65.52
22605;BME280;11469;49.024;8.246;2023-05-29T05:20:40;100492.38;;;16.05;64.63
22605;BME280;11469;49.024;8.246;2023-05-29T05:23:06;100504.53;;;16.19;64.50
22605;BME280;11469;49.024;8.246;2023-05-29T05:25:32;100502.53;;;16.23;64.45
22605;BME280;11469;49.024;8.246;2023-05-29T05:27:59;100509.34;;;16.12;64.57
22605;BME280;11469;49.024;8.246;2023-05-29T05:30:25;100507.47;;;16.44;64.09
22605;BME280;11469;49.024;8.246;2023-05-29T05:32:50;100507.09;;;16.46;64.33
22605;BME280;11469;49.024;8.246;2023-05-29T05:35:15;100510.03;;;16.88;63.48
22605;BME280;11469;49.024;8.246;2023-05-29T05:37:41;100508.41;;;17.09;62.11
22605;BME280;11469;49.024;8.246;2023-05-29T05:40:07;100503.16;;;17.04;62.29
22605;BME280;11469;49.024;8.246;2023-05-29T05:42:33;100508.84;;;17.25;61.26
22605;BME280;11469;49.024;8.246;2023-05-29T05:44:59;100508.44;;;17.19;61.45
22605;BME280;11469;49.024;8.246;2023-05-29T05:47:24;100520.56;;;17.27;60.96
22605;BME280;11469;49.024;8.246;2023-05-29T05:49:49;100526.66;;;17.36;60.96
22605;BME280;11469;49.024;8.246;2023-05-29T05:52:16;100529.03;;;17.55;60.49
22605;BME280;11469;49.024;8.246;2023-05-29T05:54:42;100526.59;;;17.61;60.12
22605;BME280;11469;49.024;8.246;2023-05-29T05:57:08;100527.44;;;17.76;59.44
22605;BME280;11469;49.024;8.246;2023-05-29T05:59:33;100525.81;;;17.57;60.05
22605;BME280;11469;49.024;8.246;2023-05-29T06:01:59;100538.34;;;17.63;60.82
22605;BME280;11469;49.024;8.246;2023-05-29T06:04:24;100544.03;;;17.70;60.22
22605;BME280;11469;49.024;8.246;2023-05-29T06:06:49;100547.69;;;17.24;60.83
22605;BME280;11469;49.024;8.246;2023-05-29T06:09:15;100539.59;;;17.48;60.51
22605;BME280;11469;49.024;8.246;2023-05-29T06:11:40;100543.63;;;17.18;60.48
22605;BME280;11469;49.024;8.246;2023-05-29T06:14:05;100552.94;;;17.54;59.72
22605;BME280;11469;49.024;8.246;2023-05-29T06:16:31;100557.00;;;17.75;59.04
22605;BME280;11469;49.024;8.246;2023-05-29T06:18:56;100554.97;;;17.72;59.53
22605;BME280;11469;49.024;8.246;2023-05-29T06:21:22;100555.31;;;17.99;59.27
22605;BME280;11469;49.024;8.246;2023-05-29T06:23:48;100554.13;;;17.64;58.86
22605;BME280;11469;49.024;8.246;2023-05-29T06:26:14;100556.97;;;17.25;59.53
22605;BME280;11469;49.024;8.246;2023-05-29T06:28:41;100566.25;;;17.04;61.40
22605;BME280;11469;49.024;8.246;2023-05-29T06:31:06;100568.72;;;17.63;60.34
22605;BME280;11469;49.024;8.246;2023-05-29T06:33:32;100562.25;;;17.73;59.60
22605;BME280;11469;49.024;8.246;2023-05-29T06:35:57;100559.00;;;17.56;59.91
22605;BME280;11469;49.024;8.246;2023-05-29T06:38:23;100569.94;;;17.72;59.42
22605;BME280;11469;49.024;8.246;2023-05-29T06:40:48;100568.28;;;18.03;59.31
22605;BME280;11469;49.024;8.246;2023-05-29T06:43:13;100564.88;;;18.47;58.22
22605;BME280;11469;49.024;8.246;2023-05-29T06:45:39;100564.03;;;18.54;57.97
22605;BME280;11469;49.024;8.246;2023-05-29T06:48:05;100555.84;;;18.77;56.41
22605;BME280;11469;49.024;8.246;2023-05-29T06:50:31;100555.56;;;18.43;57.85
22605;BME280;11469;49.024;8.246;2023-05-29T06:52:56;100558.00;;;18.45;56.97
22605;BME280;11469;49.024;8.246;2023-05-29T06:55:22;100555.81;;;18.84;56.54
22605;BME280;11469;49.024;8.246;2023-05-29T06:57:47;100559.69;;;19.12;55.48
22605;BME280;11469;49.024;8.246;2023-05-29T07:00:13;100558.06;;;19.14;53.96
22605;BME280;11469;49.024;8.246;2023-05-29T07:02:38;100556.19;;;19.45;53.94
22605;BME280;11469;49.024;8.246;2023-05-29T07:05:04;100559.34;;;19.03;54.70
22605;BME280;11469;49.024;8.246;2023-05-29T07:07:29;100557.66;;;19.12;54.47
22605;BME280;11469;49.024;8.246;2023-05-29T07:09:55;100572.56;;;19.27;54.04
22605;BME280;11469;49.024;8.246;2023-05-29T07:12:21;100570.38;;;19.45;53.94
22605;BME280;11469;49.024;8.246;2023-05-29T07:14:47;100564.81;;;19.35;54.17
22605;BME280;11469;49.024;8.246;2023-05-29T07:17:13;100573.63;;;19.47;54.25
22605;BME280;11469;49.024;8.246;2023-05-29T07:19:39;100569.84;;;19.65;53.48
22605;BME280;11469;49.024;8.246;2023-05-29T07:22:05;100576.28;;;19.72;52.75
22605;BME280;11469;49.024;8.246;2023-05-29T07:24:31;100569.94;;;19.50;53.04
22605;BME280;11469;49.024;8.246;2023-05-29T07:26:56;100573.53;;;19.62;52.01
22605;BME280;11469;49.024;8.246;2023-05-29T07:29:22;100576.81;;;19.60;51.46
22605;BME280;11469;49.024;8.246;2023-05-29T07:31:51;100577.19;;;19.62;52.23
22605;BME280;11469;49.024;8.246;2023-05-29T07:34:17;100573.38;;;19.79;50.79
22605;BME280;11469;49.024;8.246;2023-05-29T07:37:03;100577.28;;;19.44;52.77
22605;BME280;11469;49.024;8.246;2023-05-29T07:39:34;100570.41;;;19.42;51.12
22605;BME280;11469;49.024;8.246;2023-05-29T07:42:00;100582.31;;;19.30;51.41
22605;BME280;11469;49.024;8.246;2023-05-29T07:44:29;100585.84;;;19.41;52.34
22605;BME280;11469;49.024;8.246;2023-05-29T07:46:54;100587.84;;;19.47;51.42
22605;BME280;11469;49.024;8.246;2023-05-29T07:49:20;100584.22;;;19.40;53.17
22605;BME280;11469;49.024;8.246;2023-05-29T07:51:45;100588.56;;;19.62;52.52
22605;BME280;11469;49.024;8.246;2023-05-29T07:54:11;100584.59;;;19.45;52.91
22605;BME280;11469;49.024;8.246;2023-05-29T07:56:37;100587.84;;;19.51;53.39
22605;BME280;11469;49.024;8.246;2023-05-29T07:59:03;100581.16;;;19.16;52.93
22605;BME280;11469;49.024;8.246;2023-05-29T08:01:29;100582.50;;;19.57;53.67
22605;BME280;11469;49.024;8.246;2023-05-29T08:03:55;100580.44;;;19.61;53.18
22605;BME280;11469;49.024;8.246;2023-05-29T08:06:21;100581.69;;;19.56;53.27
22605;BME280;11469;49.024;8.246;2023-05-29T08:08:46;100591.13;;;19.91;53.44
22605;BME280;11469;49.024;8.246;2023-05-29T08:11:12;100584.13;;;20.02;52.80
22605;BME280;11469;49.024;8.246;2023-05-29T08:13:38;100585.44;;;20.32;52.13
22605;BME280;11469;49.024;8.246;2023-05-29T08:16:03;100590.63;;;20.40;53.25
22605;BME280;11469;49.024;8.246;2023-05-29T08:18:30;100582.44;;;20.46;53.16
22605;BME280;11469;49.024;8.246;2023-05-29T08:20:56;100588.53;;;20.44;52.61
22605;BME280;11469;49.024;8.246;2023-05-29T08:23:21;100589.22;;;20.56;51.04
22605;BME280;11469;49.024;8.246;2023-05-29T08:25:46;100587.19;;;20.56;51.87
22605;BME280;11469;49.024;8.246;2023-05-29T08:28:13;100588.63;;;20.71;52.15
22605;BME280;11469;49.024;8.246;2023-05-29T08:30:39;100580.81;;;20.79;52.38
22605;BME280;11469;49.024;8.246;2023-05-29T08:33:05;100578.81;;;20.42;52.60
22605;BME280;11469;49.024;8.246;2023-05-29T08:35:30;100586.81;;;20.54;53.03
22605;BME280;11469;49.024;8.246;2023-05-29T08:37:56;100580.31;;;20.53;52.82
22605;BME280;11469;49.024;8.246;2023-05-29T08:40:21;100577.19;;;20.75;53.14
22605;BME280;11469;49.024;8.246;2023-05-29T08:42:51;100574.56;;;20.57;53.09
22605;BME280;11469;49.024;8.246;2023-05-29T08:45:22;100569.72;;;20.84;52.42
22605;BME280;11469;49.024;8.246;2023-05-29T08:47:51;100575.88;;;20.49;52.61
22605;BME280;11469;49.024;8.246;2023-05-29T08:50:19;100575.81;;;20.56;52.98
22605;BME280;11469;49.024;8.246;2023-05-29T08:52:45;100580.25;;;20.87;52.07
22605;BME280;11469;49.024;8.246;2023-05-29T08:55:11;100582.03;;;20.78;52.71
22605;BME280;11469;49.024;8.246;2023-05-29T08:57:37;100576.13;;;20.92;51.54
22605;BME280;11469;49.024;8.246;2023-05-29T09:00:06;100576.31;;;21.08;50.66
22605;BME280;11469;49.024;8.246;2023-05-29T09:02:41;100579.97;;;21.09;50.61
22605;BME280;11469;49.024;8.246;2023-05-29T09:05:09;100580.28;;;21.41;50.61
22605;BME280;11469;49.024;8.246;2023-05-29T09:07:36;100582.59;;;21.27;51.04
22605;BME280;11469;49.024;8.246;2023-05-29T09:10:05;100576.34;;;21.59;50.32
22605;BME280;11469;49.024;8.246;2023-05-29T09:12:32;100567.72;;;21.12;50.38
22605;BME280;11469;49.024;8.246;2023-05-29T09:14:57;100570.81;;;21.48;50.26
22605;BME280;11469;49.024;8.246;2023-05-29T09:17:23;100572.56;;;21.65;50.27
22605;BME280;11469;49.024;8.246;2023-05-29T09:19:50;100578.16;;;21.72;49.38
22605;BME280;11469;49.024;8.246;2023-05-29T09:22:15;100569.78;;;22.08;48.90
22605;BME280;11469;49.024;8.246;2023-05-29T09:24:43;100573.88;;;22.07;47.79
22605;BME280;11469;49.024;8.246;2023-05-29T09:27:11;100578.72;;;22.10;48.51
22605;BME280;11469;49.024;8.246;2023-05-29T09:29:41;100577.91;;;22.30;47.71
22605;BME280;11469;49.024;8.246;2023-05-29T09:32:12;100581.19;;;22.08;47.12
22605;BME280;11469;49.024;8.246;2023-05-29T09:34:37;100573.16;;;22.43;47.79
22605;BME280;11469;49.024;8.246;2023-05-29T09:37:07;100580.19;;;22.58;46.84
22605;BME280;11469;49.024;8.246;2023-05-29T09:42:12;100582.75;;;22.52;46.51
22605;BME280;11469;49.024;8.246;2023-05-29T09:44:40;100579.69;;;22.63;46.10
22605;BME280;11469;49.024;8.246;2023-05-29T09:47:05;100578.50;;;22.80;46.58
22605;BME280;11469;49.024;8.246;2023-05-29T09:49:32;100572.91;;;22.73;45.46
22605;BME280;11469;49.024;8.246;2023-05-29T09:51:57;100567.75;;;22.48;46.43
22605;BME280;11469;49.024;8.246;2023-05-29T09:54:27;100570.72;;;23.01;46.39
22605;BME280;11469;49.024;8.246;2023-05-29T09:56:57;100564.69;;;23.31;45.08
22605;BME280;11469;49.024;8.246;2023-05-29T09:59:24;100562.22;;;22.77;43.77
22605;BME280;11469;49.024;8.246;2023-05-29T10:01:59;100564.28;;;22.97;45.71
22605;BME280;11469;49.024;8.246;2023-05-29T10:04:25;100559.09;;;22.92;44.77
22605;BME280;11469;49.024;8.246;2023-05-29T10:06:51;100564.34;;;22.93;45.10
22605;BME280;11469;49.024;8.246;2023-05-29T10:09:18;100564.56;;;23.18;45.30
22605;BME280;11469;49.024;8.246;2023-05-29T10:11:47;100556.81;;;23.35;45.36
22605;BME280;11469;49.024;8.246;2023-05-29T10:14:18;100560.56;;;23.32;44.53
22605;BME280;11469;49.024;8.246;2023-05-29T10:16:46;100561.38;;;23.49;44.07
22605;BME280;11469;49.024;8.246;2023-05-29T10:19:13;100543.59;;;23.41;44.82
22605;BME280;11469;49.024;8.246;2023-05-29T10:21:41;100548.44;;;23.44;44.11
22605;BME280;11469;49.024;8.246;2023-05-29T10:24:08;100543.09;;;23.63;43.87
22605;BME280;11469;49.024;8.246;2023-05-29T10:26:39;100540.28;;;23.92;43.95
22605;BME280;11469;49.024;8.246;2023-05-29T10:29:28;100546.34;;;24.23;43.29
22605;BME280;11469;49.024;8.246;2023-05-29T10:32:12;100539.66;;;23.68;42.58
22605;BME280;11469;49.024;8.246;2023-05-29T10:35:01;100528.94;;;23.72;43.11
22605;BME280;11469;49.024;8.246;2023-05-29T10:37:42;100536.44;;;24.11;43.69
22605;BME280;11469;49.024;8.246;2023-05-29T10:40:10;100535.28;;;24.54;40.78
22605;BME280;11469;49.024;8.246;2023-05-29T10:45:07;100535.97;;;24.70;41.62
22605;BME280;11469;49.024;8.246;2023-05-29T10:47:32;100543.47;;;24.39;41.44
22605;BME280;11469;49.024;8.246;2023-05-29T10:50:01;100539.28;;;24.69;41.20
22605;BME280;11469;49.024;8.246;2023-05-29T10:52:31;100543.94;;;24.92;37.08
22605;BME280;11469;49.024;8.246;2023-05-29T10:54:56;100548.53;;;24.47;36.25
22605;BME280;11469;49.024;8.246;2023-05-29T10:57:23;100538.28;;;24.75;37.89
22605;BME280;11469;49.024;8.246;2023-05-29T10:59:57;100533.72;;;24.91;37.90
22605;BME280;11469;49.024;8.246;2023-05-29T11:02:23;100527.31;;;25.12;36.84
22605;BME280;11469;49.024;8.246;2023-05-29T11:05:19;100522.25;;;25.41;36.64
22605;BME280;11469;49.024;8.246;2023-05-29T11:07:59;100527.97;;;25.67;36.34
22605;BME280;11469;49.024;8.246;2023-05-29T11:10:44;100524.97;;;25.70;36.76
22605;BME280;11469;49.024;8.246;2023-05-29T11:13:10;100521.94;;;25.87;36.85
22605;BME280;11469;49.024;8.246;2023-05-29T11:15:37;100534.25;;;25.87;37.44
22605;BME280;11469;49.024;8.246;2023-05-29T11:18:07;100525.31;;;26.07;36.91
22605;BME280;11469;49.024;8.246;2023-05-29T11:25:23;100518.38;;;26.17;35.60
22605;BME280;11469;49.024;8.246;2023-05-29T11:27:49;100520.97;;;26.37;35.65
22605;BME280;11469;49.024;8.246;2023-05-29T11:30:17;100525.25;;;26.20;36.48
22605;BME280;11469;49.024;8.246;2023-05-29T11:32:44;100526.59;;;26.28;35.87
22605;BME280;11469;49.024;8.246;2023-05-29T11:35:12;100519.94;;;26.31;34.92
22605;BME280;11469;49.024;8.246;2023-05-29T11:37:40;100513.16;;;26.25;35.03
22605;BME280;11469;49.024;8.246;2023-05-29T11:40:08;100522.31;;;26.10;35.99
22605;BME280;11469;49.024;8.246;2023-05-29T11:42:35;100512.19;;;26.40;35.77
22605;BME280;11469;49.024;8.246;2023-05-29T11:45:20;100525.50;;;26.12;35.29
22605;BME280;11469;49.024;8.246;2023-05-29T11:47:59;100516.97;;;26.22;35.51
22605;BME280;11469;49.024;8.246;2023-05-29T11:50:27;100518.78;;;25.72;34.55
22605;BME280;11469;49.024;8.246;2023-05-29T11:52:52;100501.84;;;25.87;34.91
22605;BME280;11469;49.024;8.246;2023-05-29T11:55:19;100508.66;;;25.80;34.19
22605;BME280;11469;49.024;8.246;2023-05-29T11:57:49;100511.63;;;25.89;33.99
22605;BME280;11469;49.024;8.246;2023-05-29T12:00:16;100502.69;;;25.74;33.90
22605;BME280;11469;49.024;8.246;2023-05-29T12:02:43;100512.63;;;25.95;33.47
22605;BME280;11469;49.024;8.246;2023-05-29T12:05:09;100498.41;;;25.92;34.48
22605;BME280;11469;49.024;8.246;2023-05-29T12:07:35;100497.28;;;25.76;34.32
22605;BME280;11469;49.024;8.246;2023-05-29T12:10:15;100498.44;;;25.79;31.85
22605;BME280;11469;49.024;8.246;2023-05-29T12:12:41;100497.16;;;25.80;32.63
22605;BME280;11469;49.024;8.246;2023-05-29T12:15:08;100509.94;;;25.66;33.29
22605;BME280;11469;49.024;8.246;2023-05-29T12:17:34;100507.94;;;26.10;32.67
22605;BME280;11469;49.024;8.246;2023-05-29T12:20:00;100500.22;;;25.98;33.28
22605;BME280;11469;49.024;8.246;2023-05-29T12:22:37;100506.97;;;26.26;32.83
22605;BME280;11469;49.024;8.246;2023-05-29T12:25:10;100502.81;;;26.27;32.82
22605;BME280;11469;49.024;8.246;2023-05-29T12:27:38;100499.13;;;26.05;32.17
22605;BME280;11469;49.024;8.246;2023-05-29T12:32:40;100502.00;;;26.05;32.03
22605;BME280;11469;49.024;8.246;2023-05-29T12:37:57;100493.88;;;26.47;31.70
22605;BME280;11469;49.024;8.246;2023-05-29T12:40:26;100499.25;;;26.67;32.15
22605;BME280;11469;49.024;8.246;2023-05-29T12:42:56;100499.25;;;26.67;31.88
22605;BME280;11469;49.024;8.246;2023-05-29T12:45:24;100516.22;;;26.74;32.54
22605;BME280;11469;49.024;8.246;2023-05-29T12:50:25;100500.09;;;26.46;32.74
22605;BME280;11469;49.024;8.246;2023-05-29T12:52:58;100498.84;;;26.77;31.83
22605;BME280;11469;49.024;8.246;2023-05-29T12:55:25;100485.00;;;26.94;30.93
22605;BME280;11469;49.024;8.246;2023-05-29T12:57:51;100480.03;;;27.17;30.38
22605;BME280;11469;49.024;8.246;2023-05-29T13:00:17;100488.38;;;26.93;31.01
22605;BME280;11469;49.024;8.246;2023-05-29T13:02:44;100483.41;;;27.24;30.53
22605;BME280;11469;49.024;8.246;2023-05-29T13:05:10;100491.41;;;27.29;29.84
22605;BME280;11469;49.024;8.246;2023-05-29T13:07:35;100486.06;;;26.78;30.29
22605;BME280;11469;49.024;8.246;2023-05-29T13:10:01;100481.91;;;27.10;30.71
22605;BME280;11469;49.024;8.246;2023-05-29T13:12:27;100483.94;;;27.41;29.06